sensor_id;sensor_type;location;lat;lon;timestamp;pressure;altitude;pressure_sealevel;temperature;humidity
20983;BME280;10650;51.528;6.748;2022-08-03T00:01:42;101328.19;;;22.86;61.53
20983;BME280;10650;51.528;6.748;2022-08-03T00:04:10;101326.44;;;22.85;61.86
20983;BME280;10650;51.528;6.748;2022-08-03T00:06:38;101332.84;;;22.84;61.78
20983;BME280;10650;51.528;6.748;2022-08-03T00:09:08;101326.66;;;22.80;62.19
20983;BME280;10650;51.528;6.748;2022-08-03T00:11:36;101327.78;;;22.76;62.09
20983;BME280;10650;51.528;6.748;2022-08-03T00:14:05;101324.34;;;22.73;62.12
20983;BME280;10650;51.528;6.748;2022-08-03T00:16:33;101319.06;;;22.70;62.34
20983;BME280;10650;51.528;6.748;2022-08-03T00:19:02;101314.06;;;22.60;62.62
20983;BME280;10650;51.528;6.748;2022-08-03T00:21:30;101324.09;;;22.60;62.79
20983;BME280;10650;51.528;6.748;2022-08-03T00:23:57;101324.31;;;22.55;62.93
20983;BME280;10650;51.528;6.748;2022-08-03T00:26:27;101324.38;;;22.54;63.31
20983;BME280;10650;51.528;6.748;2022-08-03T00:28:55;101313.66;;;22.51;63.29
20983;BME280;10650;51.528;6.748;2022-08-03T00:31:22;101321.03;;;22.49;63.70
20983;BME280;10650;51.528;6.748;2022-08-03T00:34:10;101315.66;;;22.47;63.79
20983;BME280;10650;51.528;6.748;2022-08-03T00:36:38;101315.00;;;22.42;64.12
20983;BME280;10650;51.528;6.748;2022-08-03T00:39:07;101317.88;;;22.39;63.76
20983;BME280;10650;51.528;6.748;2022-08-03T00:41:36;101314.34;;;22.37;64.06
20983;BME280;10650;51.528;6.748;2022-08-03T00:44:04;101310.88;;;22.33;64.48
20983;BME280;10650;51.528;6.748;2022-08-03T00:46:32;101305.56;;;22.30;64.40
20983;BME280;10650;51.528;6.748;2022-08-03T00:49:00;101305.72;;;22.27;64.76
20983;BME280;10650;51.528;6.748;2022-08-03T00:51:28;101297.72;;;22.24;64.85
20983;BME280;10650;51.528;6.748;2022-08-03T00:53:56;101303.28;;;22.21;65.08
20983;BME280;10650;51.528;6.748;2022-08-03T00:56:25;101301.63;;;22.18;65.32
20983;BME280;10650;51.528;6.748;2022-08-03T00:58:55;101306.38;;;22.13;65.31
20983;BME280;10650;51.528;6.748;2022-08-03T01:01:24;101297.44;;;22.11;65.52
20983;BME280;10650;51.528;6.748;2022-08-03T01:03:57;101293.88;;;22.09;65.70
20983;BME280;10650;51.528;6.748;2022-08-03T01:06:32;101295.81;;;22.07;65.80
20983;BME280;10650;51.528;6.748;2022-08-03T01:09:07;101293.16;;;22.05;65.98
20983;BME280;10650;51.528;6.748;2022-08-03T01:11:38;101301.53;;;22.01;66.00
20983;BME280;10650;51.528;6.748;2022-08-03T01:14:32;101296.25;;;21.98;66.24
20983;BME280;10650;51.528;6.748;2022-08-03T01:17:05;101300.88;;;21.95;66.53
20983;BME280;10650;51.528;6.748;2022-08-03T01:19:44;101291.09;;;21.91;66.45
20983;BME280;10650;51.528;6.748;2022-08-03T01:22:25;101296.63;;;21.90;66.62
20983;BME280;10650;51.528;6.748;2022-08-03T01:25:01;101304.03;;;21.86;66.84
20983;BME280;10650;51.528;6.748;2022-08-03T01:27:39;101289.94;;;21.78;67.24
20983;BME280;10650;51.528;6.748;2022-08-03T01:30:11;101301.00;;;21.73;67.34
20983;BME280;10650;51.528;6.748;2022-08-03T01:32:45;101296.53;;;21.72;67.52
20983;BME280;10650;51.528;6.748;2022-08-03T01:35:30;101297.50;;;21.71;67.38
20983;BME280;10650;51.528;6.748;2022-08-03T01:38:07;101294.91;;;21.68;67.66
20983;BME280;10650;51.528;6.748;2022-08-03T01:40:36;101297.88;;;21.64;68.20
20983;BME280;10650;51.528;6.748;2022-08-03T01:43:09;101290.88;;;21.58;68.08
20983;BME280;10650;51.528;6.748;2022-08-03T01:45:42;101292.69;;;21.57;68.18
20983;BME280;10650;51.528;6.748;2022-08-03T01:48:11;101293.66;;;21.56;68.11
20983;BME280;10650;51.528;6.748;2022-08-03T01:50:39;101290.94;;;21.56;68.41
20983;BME280;10650;51.528;6.748;2022-08-03T01:53:08;101295.56;;;21.54;68.48
20983;BME280;10650;51.528;6.748;2022-08-03T01:55:38;101285.69;;;21.52;68.45
20983;BME280;10650;51.528;6.748;2022-08-03T01:58:07;101282.13;;;21.51;68.44
20983;BME280;10650;51.528;6.748;2022-08-03T02:00:35;101282.16;;;21.50;68.58
20983;BME280;10650;51.528;6.748;2022-08-03T02:03:06;101281.31;;;21.48;68.92
20983;BME280;10650;51.528;6.748;2022-08-03T02:05:35;101278.59;;;21.48;68.74
20983;BME280;10650;51.528;6.748;2022-08-03T02:08:07;101275.38;;;21.39;69.03
20983;BME280;10650;51.528;6.748;2022-08-03T02:10:36;101281.91;;;21.35;69.21
20983;BME280;10650;51.528;6.748;2022-08-03T02:13:06;101288.44;;;21.31;69.46
20983;BME280;10650;51.528;6.748;2022-08-03T02:15:36;101283.94;;;21.30;69.60
20983;BME280;10650;51.528;6.748;2022-08-03T02:18:07;101286.66;;;21.30;69.68
20983;BME280;10650;51.528;6.748;2022-08-03T02:20:37;101283.38;;;21.22;69.92
20983;BME280;10650;51.528;6.748;2022-08-03T02:23:05;101287.88;;;21.23;69.66
20983;BME280;10650;51.528;6.748;2022-08-03T02:25:34;101289.50;;;21.27;69.87
20983;BME280;10650;51.528;6.748;2022-08-03T02:28:10;101285.94;;;21.26;69.82
20983;BME280;10650;51.528;6.748;2022-08-03T02:30:41;101288.66;;;21.26;69.82
20983;BME280;10650;51.528;6.748;2022-08-03T02:33:16;101289.59;;;21.25;69.73
20983;BME280;10650;51.528;6.748;2022-08-03T02:35:46;101285.09;;;21.24;69.73
20983;BME280;10650;51.528;6.748;2022-08-03T02:38:15;101291.53;;;21.22;69.85
20983;BME280;10650;51.528;6.748;2022-08-03T02:40:45;101288.78;;;21.23;69.86
20983;BME280;10650;51.528;6.748;2022-08-03T02:43:16;101283.69;;;21.16;70.01
20983;BME280;10650;51.528;6.748;2022-08-03T02:45:46;101279.31;;;21.12;70.04
20983;BME280;10650;51.528;6.748;2022-08-03T02:48:17;101278.47;;;21.11;70.11
20983;BME280;10650;51.528;6.748;2022-08-03T02:50:49;101286.69;;;21.09;70.25
20983;BME280;10650;51.528;6.748;2022-08-03T02:53:18;101284.84;;;21.10;70.35
20983;BME280;10650;51.528;6.748;2022-08-03T02:55:48;101278.66;;;21.06;70.35
20983;BME280;10650;51.528;6.748;2022-08-03T02:58:18;101279.63;;;21.05;70.40
20983;BME280;10650;51.528;6.748;2022-08-03T03:00:47;101278.81;;;21.03;70.66
20983;BME280;10650;51.528;6.748;2022-08-03T03:03:20;101275.25;;;21.01;70.75
20983;BME280;10650;51.528;6.748;2022-08-03T03:05:51;101281.56;;;21.02;70.83
20983;BME280;10650;51.528;6.748;2022-08-03T03:08:23;101276.34;;;20.97;71.33
20983;BME280;10650;51.528;6.748;2022-08-03T04:01:38;101267.19;;;20.57;72.66
20983;BME280;10650;51.528;6.748;2022-08-03T04:05:27;101270.78;;;20.57;72.76
20983;BME280;10650;51.528;6.748;2022-08-03T04:08:24;101277.22;;;20.55;72.70
20983;BME280;10650;51.528;6.748;2022-08-03T04:11:39;101277.22;;;20.55;73.02
20983;BME280;10650;51.528;6.748;2022-08-03T04:15:15;101277.16;;;20.56;73.12
20983;BME280;10650;51.528;6.748;2022-08-03T04:18:33;101276.97;;;20.61;72.90
20983;BME280;10650;51.528;6.748;2022-08-03T04:21:29;101279.59;;;20.63;72.84
20983;BME280;10650;51.528;6.748;2022-08-03T04:29:34;101280.28;;;20.69;72.66
20983;BME280;10650;51.528;6.748;2022-08-03T04:33:02;101283.66;;;20.74;72.49
20983;BME280;10650;51.528;6.748;2022-08-03T04:36:13;101289.72;;;20.81;72.28
20983;BME280;10650;51.528;6.748;2022-08-03T04:40:24;101290.47;;;20.85;72.17
20983;BME280;10650;51.528;6.748;2022-08-03T04:47:02;101284.34;;;21.00;71.43
20983;BME280;10650;51.528;6.748;2022-08-03T04:50:28;101281.25;;;21.09;71.17
20983;BME280;10650;51.528;6.748;2022-08-03T04:56:51;101284.28;;;21.22;70.98
20983;BME280;10650;51.528;6.748;2022-08-03T04:59:57;101287.66;;;21.27;70.16
20983;BME280;10650;51.528;6.748;2022-08-03T05:02:57;101293.66;;;21.36;70.17
20983;BME280;10650;51.528;6.748;2022-08-03T05:05:53;101295.13;;;21.43;69.85
20983;BME280;10650;51.528;6.748;2022-08-03T05:08:43;101291.19;;;21.50;69.59
20983;BME280;10650;51.528;6.748;2022-08-03T05:11:50;101298.06;;;21.59;69.35
20983;BME280;10650;51.528;6.748;2022-08-03T05:14:36;101295.94;;;21.66;69.07
20983;BME280;10650;51.528;6.748;2022-08-03T05:17:36;101299.84;;;21.79;69.10
20983;BME280;10650;51.528;6.748;2022-08-03T05:20:22;101299.78;;;22.00;69.47
20983;BME280;10650;51.528;6.748;2022-08-03T05:23:27;101309.03;;;22.34;68.94
20983;BME280;10650;51.528;6.748;2022-08-03T05:26:11;101304.22;;;22.58;68.08
20983;BME280;10650;51.528;6.748;2022-08-03T05:29:20;101306.56;;;22.83;67.00
20983;BME280;10650;51.528;6.748;2022-08-03T05:32:30;101306.75;;;22.97;66.57
20983;BME280;10650;51.528;6.748;2022-08-03T05:35:11;101301.69;;;23.07;65.66
20983;BME280;10650;51.528;6.748;2022-08-03T05:41:32;101307.56;;;23.17;64.76
20983;BME280;10650;51.528;6.748;2022-08-03T05:44:39;101302.13;;;23.17;64.23
20983;BME280;10650;51.528;6.748;2022-08-03T05:47:37;101306.75;;;23.15;64.63
20983;BME280;10650;51.528;6.748;2022-08-03T05:50:26;101303.94;;;23.17;64.69
20983;BME280;10650;51.528;6.748;2022-08-03T05:54:34;101307.41;;;23.20;64.48
20983;BME280;10650;51.528;6.748;2022-08-03T05:57:47;101303.66;;;23.23;64.54
20983;BME280;10650;51.528;6.748;2022-08-03T06:01:18;101299.06;;;23.23;64.48
20983;BME280;10650;51.528;6.748;2022-08-03T06:04:55;101305.00;;;23.31;64.46
20983;BME280;10650;51.528;6.748;2022-08-03T06:08:41;101302.78;;;23.38;64.45
20983;BME280;10650;51.528;6.748;2022-08-03T06:12:01;101306.91;;;23.47;64.04
20983;BME280;10650;51.528;6.748;2022-08-03T06:15:55;101311.84;;;23.56;64.07
20983;BME280;10650;51.528;6.748;2022-08-03T06:18:47;101305.88;;;23.65;63.63
20983;BME280;10650;51.528;6.748;2022-08-03T06:21:49;101303.50;;;23.75;63.56
20983;BME280;10650;51.528;6.748;2022-08-03T06:25:34;101301.25;;;23.83;63.41
20983;BME280;10650;51.528;6.748;2022-08-03T06:28:29;101311.69;;;23.93;63.22
20983;BME280;10650;51.528;6.748;2022-08-03T06:31:19;101307.56;;;24.01;62.94
20983;BME280;10650;51.528;6.748;2022-08-03T06:34:09;101315.13;;;24.12;62.64
20983;BME280;10650;51.528;6.748;2022-08-03T06:37:00;101314.69;;;24.20;62.70
20983;BME280;10650;51.528;6.748;2022-08-03T06:40:08;101318.66;;;24.30;62.48
20983;BME280;10650;51.528;6.748;2022-08-03T06:42:47;101311.78;;;24.39;62.28
20983;BME280;10650;51.528;6.748;2022-08-03T06:45:24;101315.91;;;24.46;62.29
20983;BME280;10650;51.528;6.748;2022-08-03T06:48:20;101313.84;;;24.50;62.02
20983;BME280;10650;51.528;6.748;2022-08-03T06:51:09;101313.78;;;24.51;61.94
20983;BME280;10650;51.528;6.748;2022-08-03T06:54:19;101309.97;;;24.54;61.49
20983;BME280;10650;51.528;6.748;2022-08-03T06:57:01;101315.91;;;24.62;61.18
20983;BME280;10650;51.528;6.748;2022-08-03T06:59:50;101312.66;;;24.72;60.81
20983;BME280;10650;51.528;6.748;2022-08-03T07:02:58;101311.31;;;24.79;60.56
20983;BME280;10650;51.528;6.748;2022-08-03T07:05:37;101305.47;;;24.85;60.30
20983;BME280;10650;51.528;6.748;2022-08-03T07:08:28;101314.09;;;24.93;60.20
20983;BME280;10650;51.528;6.748;2022-08-03T07:11:05;101315.38;;;25.02;59.96
20983;BME280;10650;51.528;6.748;2022-08-03T07:13:51;101310.50;;;25.07;59.67
20983;BME280;10650;51.528;6.748;2022-08-03T07:16:46;101308.66;;;25.08;59.26
20983;BME280;10650;51.528;6.748;2022-08-03T07:19:22;101317.34;;;25.14;59.25
20983;BME280;10650;51.528;6.748;2022-08-03T07:22:19;101322.56;;;25.19;58.79
20983;BME280;10650;51.528;6.748;2022-08-03T07:24:56;101321.31;;;25.25;58.93
20983;BME280;10650;51.528;6.748;2022-08-03T07:27:35;101317.25;;;25.32;58.72
20983;BME280;10650;51.528;6.748;2022-08-03T07:30:10;101317.53;;;25.42;59.04
20983;BME280;10650;51.528;6.748;2022-08-03T07:32:55;101325.28;;;25.49;58.28
20983;BME280;10650;51.528;6.748;2022-08-03T07:35:42;101330.44;;;25.54;58.00
20983;BME280;10650;51.528;6.748;2022-08-03T07:38:24;101330.94;;;25.61;57.95
20983;BME280;10650;51.528;6.748;2022-08-03T07:41:07;101330.53;;;25.67;57.78
20983;BME280;10650;51.528;6.748;2022-08-03T07:47:04;101330.66;;;25.80;57.39
20983;BME280;10650;51.528;6.748;2022-08-03T07:49:42;101330.13;;;25.87;57.17
20983;BME280;10650;51.528;6.748;2022-08-03T07:55:43;101335.91;;;25.97;55.98
20983;BME280;10650;51.528;6.748;2022-08-03T07:58:39;101324.63;;;26.03;55.76
20983;BME280;10650;51.528;6.748;2022-08-03T08:01:30;101329.56;;;26.11;55.23
20983;BME280;10650;51.528;6.748;2022-08-03T08:04:05;101323.69;;;26.17;55.40
20983;BME280;10650;51.528;6.748;2022-08-03T08:07:05;101330.19;;;26.29;55.22
20983;BME280;10650;51.528;6.748;2022-08-03T08:09:55;101334.13;;;26.39;55.02
20983;BME280;10650;51.528;6.748;2022-08-03T08:16:25;101332.72;;;26.47;54.17
20983;BME280;10650;51.528;6.748;2022-08-03T08:19:06;101333.38;;;26.50;53.94
20983;BME280;10650;51.528;6.748;2022-08-03T08:22:30;101327.31;;;26.59;54.28
20983;BME280;10650;51.528;6.748;2022-08-03T08:25:41;101331.84;;;26.73;53.68
20983;BME280;10650;51.528;6.748;2022-08-03T08:28:29;101333.31;;;26.79;53.59
20983;BME280;10650;51.528;6.748;2022-08-03T08:31:41;101327.31;;;26.87;53.73
20983;BME280;10650;51.528;6.748;2022-08-03T08:35:00;101333.91;;;26.97;53.40
20983;BME280;10650;51.528;6.748;2022-08-03T08:37:49;101331.94;;;26.99;52.74
20983;BME280;10650;51.528;6.748;2022-08-03T08:41:12;101327.88;;;27.05;52.55
20983;BME280;10650;51.528;6.748;2022-08-03T08:46:13;101330.97;;;27.13;52.46
20983;BME280;10650;51.528;6.748;2022-08-03T08:47:53;101325.97;;;27.20;52.38
20983;BME280;10650;51.528;6.748;2022-08-03T08:51:01;101333.31;;;27.32;51.68
20983;BME280;10650;51.528;6.748;2022-08-03T08:53:56;101319.31;;;27.37;51.34
20983;BME280;10650;51.528;6.748;2022-08-03T08:57:25;101314.03;;;27.47;50.79
20983;BME280;10650;51.528;6.748;2022-08-03T09:00:21;101317.44;;;27.50;51.42
20983;BME280;10650;51.528;6.748;2022-08-03T09:03:17;101318.66;;;27.59;51.05
20983;BME280;10650;51.528;6.748;2022-08-03T09:06:31;101324.47;;;27.67;50.76
20983;BME280;10650;51.528;6.748;2022-08-03T09:09:30;101323.03;;;27.74;50.16
20983;BME280;10650;51.528;6.748;2022-08-03T09:12:50;101314.00;;;27.85;49.84
20983;BME280;10650;51.528;6.748;2022-08-03T09:15:24;101317.84;;;27.95;49.75
20983;BME280;10650;51.528;6.748;2022-08-03T09:18:28;101317.19;;;28.05;49.64
20983;BME280;10650;51.528;6.748;2022-08-03T09:21:19;101316.59;;;28.12;48.82
20983;BME280;10650;51.528;6.748;2022-08-03T09:24:53;101324.28;;;28.20;48.59
20983;BME280;10650;51.528;6.748;2022-08-03T09:27:18;101317.97;;;28.31;48.77
20983;BME280;10650;51.528;6.748;2022-08-03T09:30:12;101320.91;;;28.41;48.27
20983;BME280;10650;51.528;6.748;2022-08-03T09:33:06;101324.44;;;28.43;48.09
20983;BME280;10650;51.528;6.748;2022-08-03T09:35:47;101327.94;;;28.45;47.88
20983;BME280;10650;51.528;6.748;2022-08-03T09:38:25;101330.34;;;28.49;47.63
20983;BME280;10650;51.528;6.748;2022-08-03T09:41:16;101319.88;;;28.55;46.97
20983;BME280;10650;51.528;6.748;2022-08-03T09:43:56;101321.84;;;28.53;47.00
20983;BME280;10650;51.528;6.748;2022-08-03T09:46:29;101319.66;;;28.58;47.34
20983;BME280;10650;51.528;6.748;2022-08-03T09:49:13;101319.63;;;28.71;47.22
20983;BME280;10650;51.528;6.748;2022-08-03T09:51:53;101316.06;;;28.81;46.60
20983;BME280;10650;51.528;6.748;2022-08-03T09:55:25;101307.06;;;28.91;45.55
20983;BME280;10650;51.528;6.748;2022-08-03T09:58:55;101305.22;;;29.03;45.38
20983;BME280;10650;51.528;6.748;2022-08-03T10:01:58;101305.38;;;29.12;44.80
20983;BME280;10650;51.528;6.748;2022-08-03T10:05:03;101305.28;;;29.14;45.08
20983;BME280;10650;51.528;6.748;2022-08-03T10:08:09;101303.03;;;29.19;44.66
20983;BME280;10650;51.528;6.748;2022-08-03T10:11:23;101309.19;;;29.23;44.41
20983;BME280;10650;51.528;6.748;2022-08-03T10:14:20;101303.09;;;29.30;44.37
20983;BME280;10650;51.528;6.748;2022-08-03T10:17:25;101295.72;;;29.42;44.36
20983;BME280;10650;51.528;6.748;2022-08-03T10:20:22;101303.34;;;29.50;43.39
20983;BME280;10650;51.528;6.748;2022-08-03T10:23:20;101295.75;;;29.54;43.59
20983;BME280;10650;51.528;6.748;2022-08-03T10:26:15;101297.00;;;29.61;43.10
20983;BME280;10650;51.528;6.748;2022-08-03T10:29:01;101294.63;;;29.67;43.49
20983;BME280;10650;51.528;6.748;2022-08-03T10:31:58;101290.72;;;29.70;43.08
20983;BME280;10650;51.528;6.748;2022-08-03T10:34:52;101284.88;;;29.75;43.06
20983;BME280;10650;51.528;6.748;2022-08-03T10:37:58;101286.03;;;29.83;43.52
20983;BME280;10650;51.528;6.748;2022-08-03T10:44:59;101273.47;;;30.13;42.79
20983;BME280;10650;51.528;6.748;2022-08-03T10:48:15;101276.81;;;30.28;42.17
20983;BME280;10650;51.528;6.748;2022-08-03T10:51:25;101272.03;;;30.30;42.24
20983;BME280;10650;51.528;6.748;2022-08-03T10:54:41;101269.03;;;30.33;41.65
20983;BME280;10650;51.528;6.748;2022-08-03T10:57:49;101275.00;;;30.38;41.79
20983;BME280;10650;51.528;6.748;2022-08-03T11:00:56;101269.75;;;30.47;41.81
20983;BME280;10650;51.528;6.748;2022-08-03T11:04:41;101268.78;;;30.48;41.04
20983;BME280;10650;51.528;6.748;2022-08-03T11:07:55;101260.00;;;30.43;41.54
20983;BME280;10650;51.528;6.748;2022-08-03T11:10:38;101249.34;;;30.49;41.49
20983;BME280;10650;51.528;6.748;2022-08-03T11:14:03;101249.81;;;30.54;41.10
20983;BME280;10650;51.528;6.748;2022-08-03T11:17:05;101254.41;;;30.65;42.00
20983;BME280;10650;51.528;6.748;2022-08-03T11:20:06;101247.41;;;30.61;40.83
20983;BME280;10650;51.528;6.748;2022-08-03T11:22:47;101250.66;;;30.66;40.64
20983;BME280;10650;51.528;6.748;2022-08-03T11:26:29;101254.88;;;30.70;40.01
20983;BME280;10650;51.528;6.748;2022-08-03T11:30:05;101257.84;;;30.79;40.21
20983;BME280;10650;51.528;6.748;2022-08-03T11:33:00;101245.81;;;30.80;40.00
20983;BME280;10650;51.528;6.748;2022-08-03T11:36:01;101244.31;;;30.76;40.77
20983;BME280;10650;51.528;6.748;2022-08-03T11:39:39;101240.88;;;30.83;39.75
20983;BME280;10650;51.528;6.748;2022-08-03T12:10:21;101235.38;;;31.56;37.35
20983;BME280;10650;51.528;6.748;2022-08-03T12:12:54;101236.16;;;31.59;37.15
20983;BME280;10650;51.528;6.748;2022-08-03T12:15:24;101223.47;;;31.56;37.38
20983;BME280;10650;51.528;6.748;2022-08-03T12:17:52;101230.34;;;31.62;37.52
20983;BME280;10650;51.528;6.748;2022-08-03T12:20:24;101227.63;;;31.71;37.07
20983;BME280;10650;51.528;6.748;2022-08-03T12:23:02;101222.00;;;31.83;36.29
20983;BME280;10650;51.528;6.748;2022-08-03T12:25:33;101221.44;;;31.89;35.39
20983;BME280;10650;51.528;6.748;2022-08-03T12:28:07;101222.91;;;31.93;35.51
20983;BME280;10650;51.528;6.748;2022-08-03T12:31:00;101219.41;;;32.01;34.93
20983;BME280;10650;51.528;6.748;2022-08-03T12:33:28;101225.81;;;32.01;34.59
20983;BME280;10650;51.528;6.748;2022-08-03T12:36:05;101217.69;;;32.09;34.96
20983;BME280;10650;51.528;6.748;2022-08-03T12:38:35;101215.06;;;32.08;34.42
20983;BME280;10650;51.528;6.748;2022-08-03T12:41:08;101210.75;;;32.15;35.01
20983;BME280;10650;51.528;6.748;2022-08-03T12:43:46;101214.41;;;32.25;34.35
20983;BME280;10650;51.528;6.748;2022-08-03T12:46:16;101211.91;;;32.32;34.19
20983;BME280;10650;51.528;6.748;2022-08-03T12:49:06;101204.38;;;32.24;33.90
20983;BME280;10650;51.528;6.748;2022-08-03T12:51:36;101217.44;;;32.22;34.04
20983;BME280;10650;51.528;6.748;2022-08-03T12:54:05;101214.56;;;32.24;34.19
20983;BME280;10650;51.528;6.748;2022-08-03T12:56:34;101212.66;;;32.24;33.91
20983;BME280;10650;51.528;6.748;2022-08-03T12:59:23;101222.13;;;32.32;34.26
20983;BME280;10650;51.528;6.748;2022-08-03T13:02:00;101219.63;;;32.29;34.59
20983;BME280;10650;51.528;6.748;2022-08-03T13:04:32;101207.56;;;32.20;34.48
20983;BME280;10650;51.528;6.748;2022-08-03T13:07:01;101203.91;;;32.19;34.74
20983;BME280;10650;51.528;6.748;2022-08-03T13:09:40;101212.66;;;32.24;33.83
20983;BME280;10650;51.528;6.748;2022-08-03T13:12:10;101206.84;;;32.28;34.55
20983;BME280;10650;51.528;6.748;2022-08-03T13:14:39;101205.81;;;32.29;33.64
20983;BME280;10650;51.528;6.748;2022-08-03T13:17:07;101199.13;;;32.21;33.19
20983;BME280;10650;51.528;6.748;2022-08-03T13:19:36;101196.38;;;32.21;33.37
20983;BME280;10650;51.528;6.748;2022-08-03T13:22:11;101203.78;;;32.31;34.57
20983;BME280;10650;51.528;6.748;2022-08-03T13:24:41;101205.69;;;32.40;33.46
20983;BME280;10650;51.528;6.748;2022-08-03T13:27:10;101200.16;;;32.40;33.15
20983;BME280;10650;51.528;6.748;2022-08-03T13:29:59;101193.59;;;32.41;33.43
20983;BME280;10650;51.528;6.748;2022-08-03T13:32:27;101192.56;;;32.42;33.12
20983;BME280;10650;51.528;6.748;2022-08-03T13:34:55;101194.47;;;32.41;33.78
20983;BME280;10650;51.528;6.748;2022-08-03T13:37:23;101194.47;;;32.41;33.44
20983;BME280;10650;51.528;6.748;2022-08-03T13:39:52;101192.56;;;32.42;33.31
20983;BME280;10650;51.528;6.748;2022-08-03T13:42:31;101192.28;;;32.55;33.77
20983;BME280;10650;51.528;6.748;2022-08-03T13:44:59;101196.38;;;32.70;33.29
20983;BME280;10650;51.528;6.748;2022-08-03T13:47:28;101184.00;;;32.84;32.74
20983;BME280;10650;51.528;6.748;2022-08-03T13:49:55;101183.38;;;32.90;31.95
20983;BME280;10650;51.528;6.748;2022-08-03T13:52:28;101181.75;;;32.98;32.33
20983;BME280;10650;51.528;6.748;2022-08-03T13:54:56;101185.81;;;33.03;32.17
20983;BME280;10650;51.528;6.748;2022-08-03T13:57:25;101178.69;;;33.01;32.32
20983;BME280;10650;51.528;6.748;2022-08-03T14:00:16;101168.06;;;33.06;31.90
20983;BME280;10650;51.528;6.748;2022-08-03T14:02:56;101169.63;;;33.08;32.04
20983;BME280;10650;51.528;6.748;2022-08-03T14:05:34;101170.25;;;33.02;31.54
20983;BME280;10650;51.528;6.748;2022-08-03T14:08:04;101175.53;;;32.86;30.99
20983;BME280;10650;51.528;6.748;2022-08-03T14:10:34;101178.59;;;32.83;31.57
20983;BME280;10650;51.528;6.748;2022-08-03T14:13:02;101166.34;;;32.85;31.22
20983;BME280;10650;51.528;6.748;2022-08-03T14:15:32;101171.56;;;32.88;31.44
20983;BME280;10650;51.528;6.748;2022-08-03T14:18:04;101171.00;;;32.94;31.15
20983;BME280;10650;51.528;6.748;2022-08-03T14:20:32;101164.47;;;32.96;31.42
20983;BME280;10650;51.528;6.748;2022-08-03T14:23:10;101158.03;;;32.95;31.79
20983;BME280;10650;51.528;6.748;2022-08-03T14:25:39;101157.88;;;32.97;31.80
20983;BME280;10650;51.528;6.748;2022-08-03T14:28:17;101156.88;;;32.88;31.97
20983;BME280;10650;51.528;6.748;2022-08-03T14:30:47;101162.25;;;32.89;31.82
20983;BME280;10650;51.528;6.748;2022-08-03T14:33:15;101158.97;;;32.76;31.40
20983;BME280;10650;51.528;6.748;2022-08-03T14:35:42;101160.97;;;32.74;31.99
20983;BME280;10650;51.528;6.748;2022-08-03T14:38:12;101152.28;;;32.69;31.83
20983;BME280;10650;51.528;6.748;2022-08-03T14:40:40;101146.88;;;32.67;32.31
20983;BME280;10650;51.528;6.748;2022-08-03T14:43:08;101153.88;;;32.71;32.23
20983;BME280;10650;51.528;6.748;2022-08-03T14:45:37;101151.28;;;32.70;32.05
20983;BME280;10650;51.528;6.748;2022-08-03T14:48:06;101148.34;;;32.62;32.00
20983;BME280;10650;51.528;6.748;2022-08-03T14:50:54;101153.44;;;32.47;31.96
20983;BME280;10650;51.528;6.748;2022-08-03T14:53:22;101150.09;;;32.43;31.54
20983;BME280;10650;51.528;6.748;2022-08-03T14:55:50;101138.03;;;32.34;31.57
20983;BME280;10650;51.528;6.748;2022-08-03T14:58:18;101144.88;;;32.40;32.54
20983;BME280;10650;51.528;6.748;2022-08-03T15:00:48;101135.84;;;32.48;31.96
20983;BME280;10650;51.528;6.748;2022-08-03T15:03:18;101147.03;;;32.46;32.16
20983;BME280;10650;51.528;6.748;2022-08-03T15:05:49;101132.91;;;32.49;32.49
20983;BME280;10650;51.528;6.748;2022-08-03T15:08:18;101131.03;;;32.50;32.09
20983;BME280;10650;51.528;6.748;2022-08-03T15:10:46;101130.00;;;32.51;31.94
20983;BME280;10650;51.528;6.748;2022-08-03T15:13:15;101125.94;;;32.45;31.83
20983;BME280;10650;51.528;6.748;2022-08-03T15:15:43;101121.88;;;32.39;31.63
20983;BME280;10650;51.528;6.748;2022-08-03T15:18:11;101130.63;;;32.35;31.90
20983;BME280;10650;51.528;6.748;2022-08-03T15:20:40;101127.53;;;32.38;32.43
20983;BME280;10650;51.528;6.748;2022-08-03T15:23:12;101132.94;;;32.39;32.49
20983;BME280;10650;51.528;6.748;2022-08-03T15:25:40;101125.38;;;32.41;32.79
20983;BME280;10650;51.528;6.748;2022-08-03T15:28:29;101126.53;;;32.49;32.53
20983;BME280;10650;51.528;6.748;2022-08-03T15:30:56;101120.41;;;32.45;32.37
20983;BME280;10650;51.528;6.748;2022-08-03T15:33:24;101110.66;;;32.41;32.04
20983;BME280;10650;51.528;6.748;2022-08-03T15:35:54;101124.78;;;32.38;32.58
20983;BME280;10650;51.528;6.748;2022-08-03T15:38:22;101122.16;;;32.36;32.45
20983;BME280;10650;51.528;6.748;2022-08-03T15:40:52;101127.00;;;32.34;33.07
20983;BME280;10650;51.528;6.748;2022-08-03T15:43:20;101124.94;;;32.26;32.04
20983;BME280;10650;51.528;6.748;2022-08-03T15:45:49;101126.25;;;32.22;32.74
20983;BME280;10650;51.528;6.748;2022-08-03T15:48:36;101124.53;;;32.21;33.15
20983;BME280;10650;51.528;6.748;2022-08-03T15:51:06;101123.06;;;32.17;32.77
20983;BME280;10650;51.528;6.748;2022-08-03T15:53:34;101117.84;;;32.14;32.60
20983;BME280;10650;51.528;6.748;2022-08-03T15:56:03;101119.56;;;32.15;33.10
20983;BME280;10650;51.528;6.748;2022-08-03T15:58:39;101114.63;;;32.19;33.68
20983;BME280;10650;51.528;6.748;2022-08-03T16:01:28;101109.66;;;32.22;33.48
20983;BME280;10650;51.528;6.748;2022-08-03T16:03:56;101108.22;;;32.28;33.46
20983;BME280;10650;51.528;6.748;2022-08-03T16:06:25;101109.25;;;32.27;33.07
20983;BME280;10650;51.528;6.748;2022-08-03T16:09:03;101107.50;;;32.26;33.60
20983;BME280;10650;51.528;6.748;2022-08-03T16:11:51;101113.72;;;32.28;33.67
20983;BME280;10650;51.528;6.748;2022-08-03T16:14:19;101104.28;;;32.31;33.86